createdAt,value
2023-11-04T00:00:23.330Z,65.79
2023-11-04T00:02:27.393Z,64.58
2023-11-04T00:03:47.697Z,62.68
2023-11-04T00:05:38.533Z,60.99
2023-11-04T00:07:01.040Z,59.39
2023-11-04T00:08:44.593Z,58.20
2023-11-04T00:10:16.827Z,59.25
2023-11-04T00:12:00.913Z,61.49
2023-11-04T00:13:44.677Z,64.46
2023-11-04T00:15:38.414Z,65.62
2023-11-04T00:17:06.480Z,63.73
2023-11-04T00:18:38.641Z,61.14
2023-11-04T00:20:22.776Z,59.48
2023-11-04T00:21:43.496Z,58.14
2023-11-04T00:23:15.687Z,58.80
2023-11-04T00:25:01.483Z,60.81
2023-11-04T00:26:45.012Z,63.65
2023-11-04T00:28:26.299Z,65.90
2023-11-04T00:30:10.598Z,64.17
2023-11-04T00:31:42.710Z,61.55
2023-11-04T00:33:14.720Z,59.80
2023-11-04T00:34:37.565Z,57.66
2023-11-04T00:36:10.071Z,57.95
2023-11-04T00:37:45.348Z,59.59
2023-11-04T00:39:19.773Z,62.30
2023-11-04T00:40:54.238Z,65.19
2023-11-04T00:42:27.022Z,65.32
2023-11-04T00:44:01.861Z,63.28
2023-11-04T00:45:29.655Z,61.62
2023-11-04T00:47:09.244Z,60.22
2023-11-04T00:48:33.715Z,58.71
2023-11-04T00:50:14.751Z,58.14
2023-11-04T00:52:03.943Z,59.87
2023-11-04T00:53:47.859Z,62.31
2023-11-04T00:55:26.904Z,65.29
2023-11-04T00:57:10.374Z,65.35
2023-11-04T00:58:42.119Z,63.67
2023-11-04T01:00:25.996Z,61.70
2023-11-04T01:01:57.796Z,59.93
2023-11-04T01:03:32.197Z,58.54
2023-11-04T01:05:16.236Z,58.19
2023-11-04T01:07:00.010Z,60.10
2023-11-04T01:08:44.622Z,62.55
2023-11-04T01:10:13.545Z,65.46
2023-11-04T01:11:47.635Z,65.39
2023-11-04T01:13:39.627Z,63.53
2023-11-04T01:15:11.868Z,61.21
2023-11-04T01:16:34.605Z,59.84
2023-11-04T01:17:59.888Z,58.50
2023-11-04T01:19:25.278Z,58.28
2023-11-04T01:20:57.656Z,59.66
2023-11-04T01:22:17.698Z,61.84
2023-11-04T01:23:51.943Z,64.15
2023-11-04T01:25:14.458Z,65.64
2023-11-04T01:26:46.586Z,64.37
2023-11-04T01:28:09.270Z,62.65
2023-11-04T01:29:52.802Z,60.95
2023-11-04T01:31:15.311Z,59.55
2023-11-04T01:32:59.246Z,58.12
2023-11-04T01:34:31.313Z,58.86
2023-11-04T01:35:54.991Z,60.50
2023-11-04T01:37:27.307Z,62.55
2023-11-04T01:39:02.236Z,65.42
2023-11-04T01:40:26.933Z,65.17
2023-11-04T01:41:59.006Z,63.64
2023-11-04T01:43:42.484Z,61.46
2023-11-04T01:45:17.388Z,59.84
2023-11-04T01:47:01.091Z,58.27
2023-11-04T01:48:23.669Z,58.47
2023-11-04T01:49:55.845Z,60.03
2023-11-04T01:51:30.294Z,62.34
2023-11-04T01:53:00.448Z,65.33
2023-11-04T01:54:26.054Z,65.51
2023-11-04T01:55:46.403Z,64.10
2023-11-04T01:57:18.640Z,62.36
2023-11-04T01:58:52.543Z,60.45
2023-11-04T02:00:15.333Z,59.09
2023-11-04T02:01:49.586Z,58.00
2023-11-04T02:03:32.999Z,59.23
2023-11-04T02:04:56.140Z,61.39
2023-11-04T02:06:40.106Z,64.00
2023-11-04T02:08:15.262Z,65.63
2023-11-04T02:09:35.545Z,64.43
2023-11-04T02:11:24.569Z,62.54
2023-11-04T02:12:56.284Z,60.78
2023-11-04T02:14:39.890Z,59.18
2023-11-04T02:16:12.104Z,58.14
2023-11-04T02:17:34.753Z,59.20
2023-11-04T02:18:59.442Z,61.09
2023-11-04T02:20:43.140Z,63.67
2023-11-04T02:22:18.274Z,65.77
2023-11-04T02:24:01.714Z,64.72
2023-11-04T02:25:24.707Z,62.75
2023-11-04T02:26:54.452Z,61.15
2023-11-04T02:28:28.906Z,59.71
2023-11-04T02:30:00.899Z,58.30
2023-11-04T02:31:34.324Z,58.52
2023-11-04T02:33:23.035Z,60.32
2023-11-04T02:35:06.457Z,62.88
2023-11-04T02:36:38.846Z,65.41
2023-11-04T02:38:13.043Z,64.95
2023-11-04T02:39:36.069Z,63.32
2023-11-04T02:40:59.176Z,61.63
2023-11-04T02:42:42.762Z,60.03
2023-11-04T02:44:18.524Z,58.44
2023-11-04T02:45:40.991Z,58.39
2023-11-04T02:47:25.087Z,60.11
2023-11-04T02:49:11.035Z,62.51
2023-11-04T02:50:42.620Z,65.16
2023-11-04T02:52:22.234Z,65.05
2023-11-04T02:54:06.049Z,63.11
2023-11-04T02:55:46.422Z,60.96
2023-11-04T02:57:19.568Z,59.53
2023-11-04T02:58:42.460Z,57.89
2023-11-04T03:00:18.031Z,58.27
2023-11-04T03:01:38.320Z,60.14
2023-11-04T03:03:10.862Z,62.41
2023-11-04T03:04:55.149Z,65.10
2023-11-04T03:06:27.538Z,65.19
2023-11-04T03:08:14.098Z,63.43
2023-11-04T03:09:53.685Z,61.26
2023-11-04T03:11:23.805Z,59.71
2023-11-04T03:12:45.041Z,58.00
2023-11-04T03:14:29.133Z,58.22
2023-11-04T03:15:59.169Z,60.23
2023-11-04T03:17:31.340Z,62.48
2023-11-04T03:19:16.866Z,65.03
2023-11-04T03:20:45.144Z,65.05
2023-11-04T03:22:15.024Z,63.10
2023-11-04T03:23:39.766Z,61.34
2023-11-04T03:25:19.059Z,59.81
2023-11-04T03:27:07.674Z,57.93
2023-11-04T03:28:39.384Z,58.73
2023-11-04T03:30:11.981Z,60.70
2023-11-04T03:31:46.573Z,62.70
2023-11-04T03:33:14.806Z,65.37
2023-11-04T03:34:37.201Z,65.25
2023-11-04T03:36:17.161Z,63.44
2023-11-04T03:37:48.930Z,61.27
2023-11-04T03:39:32.990Z,59.68
2023-11-04T03:41:00.794Z,57.95
2023-11-04T03:42:23.346Z,58.11
2023-11-04T03:44:03.348Z,59.92
2023-11-04T03:45:24.183Z,62.04
2023-11-04T03:46:56.361Z,64.25
2023-11-04T03:48:16.861Z,65.23
2023-11-04T03:49:51.087Z,63.86
2023-11-04T03:51:25.938Z,61.64
2023-11-04T03:52:56.325Z,59.93
2023-11-04T03:54:30.077Z,58.14
2023-11-04T03:56:03.730Z,58.21
2023-11-04T03:57:47.351Z,59.78
2023-11-04T03:59:07.618Z,61.89
2023-11-04T04:00:48.250Z,64.13
2023-11-04T04:02:20.491Z,65.23
2023-11-04T04:03:55.857Z,63.68
2023-11-04T04:05:27.881Z,61.47
2023-11-04T04:07:00.163Z,59.89
2023-11-04T04:08:28.082Z,57.83
2023-11-04T04:09:50.813Z,57.96
2023-11-04T04:11:13.771Z,59.43
2023-11-04T04:12:45.926Z,61.54
2023-11-04T04:14:17.915Z,63.96
2023-11-04T04:15:38.225Z,65.29
2023-11-04T04:17:06.335Z,64.35
2023-11-04T04:18:38.397Z,62.34
2023-11-04T04:20:24.296Z,60.35
2023-11-04T04:21:56.457Z,58.65
2023-11-04T04:23:24.651Z,57.75
2023-11-04T04:24:56.793Z,59.01
2023-11-04T04:26:24.835Z,61.19
2023-11-04T04:28:08.779Z,63.62
2023-11-04T04:29:52.268Z,65.33
2023-11-04T04:31:37.816Z,63.86
2023-11-04T04:33:22.221Z,61.41
2023-11-04T04:34:58.971Z,59.34
2023-11-04T04:36:33.632Z,57.85
2023-11-04T04:37:56.344Z,58.49
2023-11-04T04:39:28.944Z,60.34
2023-11-04T04:41:12.890Z,62.36
2023-11-04T04:42:52.594Z,65.15
2023-11-04T04:44:15.500Z,64.86
2023-11-04T04:45:45.302Z,63.23
2023-11-04T04:47:13.160Z,61.21
2023-11-04T04:48:56.556Z,59.27
2023-11-04T04:50:37.347Z,57.69
2023-11-04T04:52:20.911Z,58.73
2023-11-04T04:53:54.870Z,60.78
2023-11-04T04:55:29.051Z,62.84
2023-11-04T04:57:03.278Z,65.10
2023-11-04T04:58:47.073Z,64.24
2023-11-04T05:00:30.352Z,61.87
2023-11-04T05:02:10.728Z,59.79
2023-11-04T05:03:54.944Z,57.85
2023-11-04T05:05:34.417Z,58.44
2023-11-04T05:06:54.802Z,60.08
2023-11-04T05:08:40.579Z,62.05
2023-11-04T05:10:15.796Z,64.66
2023-11-04T05:12:00.027Z,64.70
2023-11-04T05:13:43.722Z,62.52
2023-11-04T05:15:08.756Z,60.39
2023-11-04T05:16:43.196Z,58.80
2023-11-04T05:18:17.567Z,57.77
2023-11-04T05:20:01.130Z,59.18
2023-11-04T05:21:35.420Z,61.21
2023-11-04T05:23:21.856Z,63.76
2023-11-04T05:24:44.592Z,65.18
2023-11-04T05:26:16.942Z,63.74
2023-11-04T05:27:48.960Z,61.66
2023-11-04T05:29:23.540Z,59.83
2023-11-04T05:30:55.790Z,57.93
2023-11-04T05:32:23.783Z,57.94
2023-11-04T05:34:08.389Z,59.55
2023-11-04T05:35:52.159Z,61.87
2023-11-04T05:37:15.044Z,64.39
2023-11-04T05:38:58.248Z,65.04
2023-11-04T05:40:32.274Z,63.14
2023-11-04T05:42:07.170Z,61.06
2023-11-04T05:43:40.790Z,59.09
2023-11-04T05:45:27.757Z,57.56
2023-11-04T05:47:09.698Z,58.53
2023-11-04T05:48:41.882Z,60.80
2023-11-04T05:50:09.806Z,62.89
2023-11-04T05:51:48.466Z,65.05
2023-11-04T05:53:20.658Z,64.90
2023-11-04T05:54:48.721Z,62.95
2023-11-04T05:56:20.433Z,61.03
2023-11-04T05:57:43.902Z,59.13
2023-11-04T05:59:15.727Z,57.52
2023-11-04T06:00:36.614Z,58.17
2023-11-04T06:02:04.878Z,59.88
2023-11-04T06:03:48.583Z,61.95
2023-11-04T06:05:21.523Z,64.64
2023-11-04T06:06:56.192Z,65.07
2023-11-04T06:08:36.299Z,63.23
2023-11-04T06:10:12.353Z,60.87
2023-11-04T06:11:40.449Z,59.24
2023-11-04T06:13:03.564Z,57.71
2023-11-04T06:14:28.931Z,58.19
2023-11-04T06:15:56.932Z,59.99
2023-11-04T06:17:31.337Z,61.94
2023-11-04T06:19:03.239Z,64.30
2023-11-04T06:20:37.713Z,64.95
2023-11-04T06:22:21.261Z,63.23
2023-11-04T06:23:44.426Z,61.07
2023-11-04T06:25:33.198Z,59.16
2023-11-04T06:26:53.755Z,57.83
2023-11-04T06:28:18.665Z,58.56
2023-11-04T06:29:46.531Z,60.15
2023-11-04T06:31:18.771Z,62.06
2023-11-04T06:33:02.779Z,64.70
2023-11-04T06:34:25.584Z,64.77
2023-11-04T06:35:59.983Z,62.86
2023-11-04T06:37:43.501Z,60.77
2023-11-04T06:39:12.334Z,58.72
2023-11-04T06:40:47.880Z,57.60
2023-11-04T06:42:32.930Z,58.83
2023-11-04T06:44:04.969Z,60.96
2023-11-04T06:45:39.345Z,63.02
2023-11-04T06:47:18.376Z,65.11
2023-11-04T06:49:02.276Z,64.03
2023-11-04T06:50:46.649Z,61.71
2023-11-04T06:52:19.938Z,59.68
2023-11-04T06:54:03.912Z,57.54
2023-11-04T06:55:50.476Z,58.02
2023-11-04T06:57:34.014Z,60.06
2023-11-04T06:58:54.114Z,62.09
2023-11-04T07:00:37.833Z,64.55
2023-11-04T07:02:09.804Z,64.78
2023-11-04T07:03:42.094Z,62.74
2023-11-04T07:05:23.815Z,60.56
2023-11-04T07:06:59.037Z,58.28
2023-11-04T07:08:54.060Z,57.43
2023-11-04T07:10:38.213Z,59.08
2023-11-04T07:12:18.045Z,61.18
2023-11-04T07:14:01.814Z,63.46
2023-11-04T07:15:45.400Z,64.89
2023-11-04T07:17:20.810Z,63.36
2023-11-04T07:19:04.940Z,60.89
2023-11-04T07:20:27.718Z,58.90
2023-11-04T07:22:07.422Z,57.21
2023-11-04T07:23:39.452Z,58.24
2023-11-04T07:25:23.052Z,59.88
2023-11-04T07:26:56.545Z,61.83
2023-11-04T07:28:36.045Z,64.18
2023-11-04T07:29:56.786Z,64.61
2023-11-04T07:31:40.200Z,62.81
2023-11-04T07:33:19.684Z,60.42
2023-11-04T07:34:54.608Z,58.11
2023-11-04T07:36:38.133Z,57.51
2023-11-04T07:38:26.022Z,58.96
2023-11-04T07:40:10.658Z,61.20
2023-11-04T07:41:50.280Z,63.49
2023-11-04T07:43:33.790Z,64.67
2023-11-04T07:45:03.091Z,62.94
2023-11-04T07:46:23.779Z,61.00
2023-11-04T07:47:56.004Z,58.99
2023-11-04T07:49:25.621Z,57.30
2023-11-04T07:50:59.781Z,57.80
2023-11-04T07:52:53.833Z,59.56
2023-11-04T07:54:21.241Z,61.60
2023-11-04T07:55:56.272Z,63.28
2023-11-04T07:57:27.980Z,64.63
2023-11-04T07:59:20.435Z,62.95
2023-11-04T08:00:43.802Z,60.66
2023-11-04T08:02:27.675Z,58.39
2023-11-04T08:04:02.293Z,57.06
2023-11-04T08:05:45.635Z,58.22
2023-11-04T08:07:07.180Z,59.64
2023-11-04T08:08:32.233Z,61.37
2023-11-04T08:09:52.469Z,62.81
2023-11-04T08:11:16.335Z,64.34
2023-11-04T08:12:44.565Z,63.41
2023-11-04T08:14:32.687Z,61.05
2023-11-04T08:16:16.130Z,58.01
2023-11-04T08:17:59.658Z,57.10
2023-11-04T08:19:39.202Z,58.16
2023-11-04T08:21:01.358Z,59.68
2023-11-04T08:22:33.479Z,61.16
2023-11-04T08:24:07.542Z,62.38
2023-11-04T08:25:50.935Z,64.16
2023-11-04T08:27:25.277Z,63.44
2023-11-04T08:29:04.852Z,61.06
2023-11-04T08:30:36.594Z,58.11
2023-11-04T08:32:11.315Z,56.78
2023-11-04T08:33:34.236Z,57.58
2023-11-04T08:35:06.897Z,58.88
2023-11-04T08:36:50.808Z,60.62
2023-11-04T08:38:13.832Z,61.96
2023-11-04T08:39:38.956Z,63.16
2023-11-04T08:41:13.000Z,64.15
2023-11-04T08:42:45.618Z,62.62
2023-11-04T08:44:20.322Z,59.82
2023-11-04T08:45:42.663Z,57.45
2023-11-04T08:47:14.585Z,57.04
2023-11-04T08:48:49.601Z,57.95
2023-11-04T08:50:33.712Z,59.44
2023-11-04T08:52:17.267Z,61.03
2023-11-04T08:53:49.345Z,62.50
2023-11-04T08:55:19.573Z,63.85
2023-11-04T08:56:45.313Z,62.98
2023-11-04T08:58:15.355Z,60.76
2023-11-04T08:59:58.962Z,57.57
2023-11-04T09:01:30.721Z,56.52
2023-11-04T09:03:14.344Z,57.37
2023-11-04T09:04:55.954Z,58.92
2023-11-04T09:06:46.116Z,60.69
2023-11-04T09:08:30.066Z,62.11
2023-11-04T09:10:09.877Z,63.96
2023-11-04T09:11:48.834Z,63.07
2023-11-04T09:13:23.380Z,59.92
2023-11-04T09:15:08.997Z,57.04
2023-11-04T09:16:53.935Z,56.38
2023-11-04T09:18:37.631Z,57.80
2023-11-04T09:20:06.120Z,58.86
2023-11-04T09:21:29.592Z,59.79
2023-11-04T09:23:13.948Z,60.76
2023-11-04T09:24:46.293Z,61.87
2023-11-04T09:26:11.504Z,63.12
2023-11-04T09:27:46.946Z,63.23
2023-11-04T09:29:11.444Z,60.98
2023-11-04T09:30:55.280Z,57.37
2023-11-04T09:32:18.093Z,55.65
2023-11-04T09:33:52.490Z,55.95
2023-11-04T09:35:27.045Z,57.31
2023-11-04T09:37:10.728Z,58.68
2023-11-04T09:38:35.738Z,59.72
2023-11-04T09:40:03.655Z,60.60
2023-11-04T09:41:38.146Z,61.37
2023-11-04T09:43:22.086Z,61.90
2023-11-04T09:45:06.016Z,63.03
2023-11-04T09:46:49.833Z,63.10
2023-11-04T09:48:24.058Z,60.35
2023-11-04T09:49:46.954Z,57.45
2023-11-04T09:51:14.597Z,55.70
2023-11-04T09:52:58.535Z,55.71
2023-11-04T09:54:42.484Z,56.84
2023-11-04T09:56:26.389Z,58.32
2023-11-04T09:58:00.876Z,59.54
2023-11-04T09:59:35.087Z,59.92
2023-11-04T10:01:10.139Z,60.64
2023-11-04T10:02:33.097Z,61.26
2023-11-04T10:03:58.974Z,62.12
2023-11-04T10:05:31.286Z,63.23
2023-11-04T10:06:59.030Z,62.21
2023-11-04T10:08:31.113Z,59.43
2023-11-04T10:09:59.039Z,56.44
2023-11-04T10:11:33.873Z,55.23
2023-11-04T10:13:08.558Z,55.63
2023-11-04T10:14:40.375Z,56.53
2023-11-04T10:16:19.392Z,57.42
2023-11-04T10:18:02.945Z,58.49
2023-11-04T10:19:48.424Z,59.64
2023-11-04T10:21:34.090Z,60.54
2023-11-04T10:23:17.400Z,61.06
2023-11-04T10:25:01.380Z,61.69
2023-11-04T10:26:45.383Z,62.70
2023-11-04T10:28:19.231Z,63.35
2023-11-04T10:30:06.812Z,61.10
2023-11-04T10:31:27.178Z,57.75
2023-11-04T10:33:01.048Z,55.69
2023-11-04T10:34:44.802Z,55.96
2023-11-04T10:36:17.089Z,56.89
2023-11-04T10:37:51.118Z,57.96
2023-11-04T10:39:34.821Z,58.88
2023-11-04T10:41:06.793Z,59.73
2023-11-04T10:42:39.007Z,60.73
2023-11-04T10:44:13.076Z,61.45
2023-11-04T10:45:38.384Z,62.10
2023-11-04T10:47:18.213Z,62.82
2023-11-04T10:48:52.620Z,63.08
2023-11-04T10:50:42.114Z,60.52
2023-11-04T10:52:14.424Z,56.74
2023-11-04T10:53:42.207Z,55.59
2023-11-04T10:55:17.654Z,56.02
2023-11-04T10:56:50.182Z,57.31
2023-11-04T10:58:26.195Z,58.27
2023-11-04T10:59:53.913Z,59.47
2023-11-04T11:01:24.309Z,60.59
2023-11-04T11:02:58.560Z,61.02
2023-11-04T11:04:31.357Z,61.73
2023-11-04T11:06:02.315Z,61.88
2023-11-04T11:07:45.911Z,62.11
2023-11-04T11:09:19.538Z,62.41
2023-11-04T11:10:40.023Z,63.51
2023-11-04T11:12:25.497Z,61.85
2023-11-04T11:13:45.924Z,58.77
2023-11-04T11:15:21.123Z,55.42
2023-11-04T11:16:43.467Z,54.49
2023-11-04T11:18:17.777Z,55.39
2023-11-04T11:19:52.075Z,56.07
2023-11-04T11:21:26.082Z,57.23
2023-11-04T11:22:57.424Z,57.76
2023-11-04T11:24:20.996Z,58.93
2023-11-04T11:25:55.196Z,59.55
2023-11-04T11:27:23.030Z,59.64
2023-11-04T11:28:45.700Z,59.78
2023-11-04T11:30:10.454Z,60.34
2023-11-04T11:31:54.335Z,60.69
2023-11-04T11:33:18.895Z,60.86
2023-11-04T11:34:51.001Z,61.44
2023-11-04T11:36:32.243Z,61.77
2023-11-04T11:38:06.775Z,61.90
2023-11-04T11:39:38.713Z,62.04
2023-11-04T11:41:22.614Z,62.23
2023-11-04T11:42:45.980Z,62.60
2023-11-04T11:44:25.418Z,63.33
2023-11-04T11:46:06.957Z,60.24
2023-11-04T11:47:40.653Z,56.77
2023-11-04T11:49:01.254Z,55.25
2023-11-04T11:50:41.664Z,55.56
2023-11-04T11:52:14.006Z,56.59
2023-11-04T11:53:46.473Z,57.34
2023-11-04T11:55:29.890Z,58.47
2023-11-04T11:57:13.411Z,59.00
2023-11-04T11:58:48.033Z,60.13
2023-11-04T12:00:24.853Z,60.93
2023-11-04T12:01:52.468Z,61.56
2023-11-04T12:03:26.657Z,61.83
2023-11-04T12:04:47.446Z,62.58
2023-11-04T12:06:19.467Z,62.79
2023-11-04T12:08:03.294Z,60.78
2023-11-04T12:09:24.357Z,57.79
2023-11-04T12:10:59.016Z,55.17
2023-11-04T12:12:33.794Z,55.31
2023-11-04T12:14:27.401Z,56.03
2023-11-04T12:16:12.449Z,57.36
2023-11-04T12:17:45.079Z,58.27
2023-11-04T12:19:12.893Z,58.13
2023-11-04T12:20:45.346Z,58.47
2023-11-04T12:22:08.561Z,59.16
2023-11-04T12:23:40.413Z,59.27
2023-11-04T12:25:15.046Z,59.51
2023-11-04T12:26:54.620Z,59.52
2023-11-04T12:28:17.316Z,59.34
2023-11-04T12:30:01.355Z,58.32
2023-11-04T12:31:26.989Z,57.94
2023-11-04T12:33:10.529Z,56.80
2023-11-04T12:34:49.896Z,55.51
2023-11-04T12:36:19.912Z,55.16
2023-11-04T12:37:47.525Z,54.87
2023-11-04T12:39:10.497Z,55.07
2023-11-04T12:40:31.784Z,55.19
2023-11-04T12:42:07.310Z,55.44
2023-11-04T12:43:47.661Z,55.24
2023-11-04T12:45:22.196Z,55.26
2023-11-04T12:46:54.715Z,55.94
2023-11-04T12:48:16.986Z,56.12
2023-11-04T12:49:56.033Z,56.38
2023-11-04T12:51:23.643Z,56.58
2023-11-04T12:52:55.355Z,57.09
2023-11-04T12:54:15.632Z,57.50
2023-11-04T12:55:47.410Z,57.39
2023-11-04T12:57:15.388Z,57.37
2023-11-04T12:58:54.799Z,57.00
2023-11-04T13:00:26.851Z,57.03
2023-11-04T13:02:05.897Z,56.58
2023-11-04T13:03:31.809Z,56.07
2023-11-04T13:05:04.345Z,55.51
2023-11-04T13:06:46.416Z,54.74
2023-11-04T13:08:21.204Z,55.08
2023-11-04T13:09:51.320Z,55.00
2023-11-04T13:11:25.064Z,54.73
2023-11-04T13:12:56.650Z,54.52
2023-11-04T13:14:29.703Z,54.07
2023-11-04T13:15:50.368Z,53.53
2023-11-04T13:17:23.185Z,53.44
2023-11-04T13:18:55.395Z,53.54
2023-11-04T13:20:17.779Z,53.55
2023-11-04T13:21:56.960Z,53.52
2023-11-04T13:23:44.952Z,53.70
2023-11-04T13:25:19.537Z,53.88
2023-11-04T13:26:52.221Z,54.28
2023-11-04T13:28:22.206Z,54.40
2023-11-04T13:29:54.693Z,54.24
2023-11-04T13:31:38.619Z,53.98
2023-11-04T13:33:10.484Z,53.79
2023-11-04T13:34:45.394Z,53.35
2023-11-04T13:36:28.704Z,52.77
2023-11-04T13:38:00.681Z,52.53
2023-11-04T13:39:36.588Z,52.31
2023-11-04T13:41:11.522Z,52.51
2023-11-04T13:42:32.449Z,52.65
2023-11-04T13:44:04.467Z,52.63
2023-11-04T13:45:44.151Z,52.91
2023-11-04T13:47:18.801Z,52.77
2023-11-04T13:48:53.953Z,52.47
2023-11-04T13:50:26.018Z,52.61
2023-11-04T13:51:57.911Z,52.55
2023-11-04T13:53:29.811Z,52.67
2023-11-04T13:55:15.366Z,52.85
2023-11-04T13:56:58.834Z,52.87
2023-11-04T13:58:32.130Z,53.27
2023-11-04T14:00:13.004Z,53.36
2023-11-04T14:01:47.353Z,53.65
2023-11-04T14:03:30.971Z,54.16
2023-11-04T14:05:05.191Z,54.51
2023-11-04T14:06:28.312Z,54.68
2023-11-04T14:08:01.831Z,55.20
2023-11-04T14:09:33.983Z,55.26
2023-11-04T14:11:06.001Z,55.86
2023-11-04T14:12:40.154Z,56.07
2023-11-04T14:14:14.624Z,56.40
2023-11-04T14:15:46.938Z,56.98
2023-11-04T14:17:12.504Z,57.21
2023-11-04T14:18:56.269Z,57.63
2023-11-04T14:20:32.289Z,58.25
2023-11-04T14:22:15.861Z,58.93
2023-11-04T14:23:38.907Z,59.29
2023-11-04T14:25:19.454Z,59.69
2023-11-04T14:26:46.840Z,60.24
2023-11-04T14:28:16.967Z,60.53
2023-11-04T14:29:51.349Z,60.96
2023-11-04T14:31:25.559Z,61.35
2023-11-04T14:32:45.679Z,61.66
2023-11-04T14:34:29.098Z,62.00
2023-11-04T14:36:08.519Z,62.39
2023-11-04T14:37:42.705Z,63.39
2023-11-04T14:39:26.263Z,62.66
2023-11-04T14:40:48.020Z,60.01
2023-11-04T14:42:20.358Z,56.65
2023-11-04T14:43:48.405Z,55.51
2023-11-04T14:45:18.240Z,55.91
2023-11-04T14:46:46.103Z,56.97
2023-11-04T14:48:20.356Z,58.05
2023-11-04T14:49:52.379Z,58.98
2023-11-04T14:51:22.604Z,59.90
2023-11-04T14:52:45.390Z,60.59
2023-11-04T14:54:28.866Z,61.31
2023-11-04T14:56:01.400Z,62.09
2023-11-04T14:57:50.340Z,62.55
2023-11-04T14:59:22.352Z,63.82
2023-11-04T15:00:55.459Z,62.38
2023-11-04T15:02:23.001Z,59.44
2023-11-04T15:03:55.401Z,56.25
2023-11-04T15:05:30.520Z,55.55
2023-11-04T15:07:09.779Z,56.33
2023-11-04T15:08:32.721Z,57.51
2023-11-04T15:10:04.607Z,58.61
2023-11-04T15:11:36.906Z,59.50
2023-11-04T15:13:13.382Z,60.37
2023-11-04T15:14:47.442Z,61.24
2023-11-04T15:16:32.940Z,62.04
2023-11-04T15:17:55.913Z,63.34
2023-11-04T15:19:41.133Z,63.31
2023-11-04T15:21:10.959Z,60.84
2023-11-04T15:22:47.139Z,57.41
2023-11-04T15:24:25.992Z,55.83
2023-11-04T15:25:56.421Z,56.28
2023-11-04T15:27:40.217Z,57.60
2023-11-04T15:29:14.972Z,59.01
2023-11-04T15:30:58.683Z,60.12
2023-11-04T15:32:22.950Z,61.09
2023-11-04T15:33:53.428Z,62.11
2023-11-04T15:35:26.785Z,63.44
2023-11-04T15:37:06.008Z,63.65
2023-11-04T15:38:26.589Z,61.35
2023-11-04T15:39:58.694Z,58.67
2023-11-04T15:41:30.403Z,56.45
2023-11-04T15:43:04.677Z,56.28
2023-11-04T15:44:38.953Z,57.58
2023-11-04T15:45:59.323Z,58.79
2023-11-04T15:47:31.580Z,59.89
2023-11-04T15:49:15.317Z,61.34
2023-11-04T15:50:54.524Z,62.40
2023-11-04T15:52:19.932Z,63.97
2023-11-04T15:53:40.456Z,63.66
2023-11-04T15:55:03.493Z,61.49
2023-11-04T15:56:31.473Z,58.90
2023-11-04T15:58:06.238Z,56.32
2023-11-04T15:59:31.411Z,56.27
2023-11-04T16:01:05.900Z,57.42
2023-11-04T16:02:27.391Z,58.71
2023-11-04T16:03:48.386Z,59.74
2023-11-04T16:05:18.901Z,60.83
2023-11-04T16:06:43.499Z,62.10
2023-11-04T16:08:04.603Z,63.38
2023-11-04T16:09:49.675Z,63.99
2023-11-04T16:11:20.877Z,61.66
2023-11-04T16:12:44.376Z,59.07
2023-11-04T16:14:18.492Z,56.50
2023-11-04T16:15:53.081Z,56.38
2023-11-04T16:17:15.405Z,57.39
2023-11-04T16:18:38.107Z,58.57
2023-11-04T16:20:10.316Z,59.75
2023-11-04T16:21:33.088Z,61.09
2023-11-04T16:23:05.584Z,61.95
2023-11-04T16:24:26.562Z,63.33
2023-11-04T16:25:49.533Z,64.03
2023-11-04T16:27:14.684Z,62.31
2023-11-04T16:28:58.212Z,59.53
2023-11-04T16:30:30.917Z,56.78
2023-11-04T16:32:01.231Z,56.44
2023-11-04T16:33:23.655Z,57.38
2023-11-04T16:34:57.577Z,58.92
2023-11-04T16:36:25.299Z,60.38
2023-11-04T16:37:57.520Z,61.61
2023-11-04T16:39:41.211Z,62.76
2023-11-04T16:41:13.104Z,64.22
2023-11-04T16:42:41.235Z,62.86
2023-11-04T16:44:13.301Z,60.06
2023-11-04T16:45:52.824Z,57.65
2023-11-04T16:47:27.614Z,56.54
2023-11-04T16:48:59.809Z,57.66
2023-11-04T16:50:31.590Z,59.03
2023-11-04T16:52:02.999Z,60.49
2023-11-04T16:53:23.806Z,61.78
2023-11-04T16:54:46.983Z,63.26
2023-11-04T16:56:22.056Z,64.17
2023-11-04T16:57:43.965Z,62.62
2023-11-04T16:59:12.164Z,60.48
2023-11-04T17:00:51.390Z,57.59
2023-11-04T17:02:25.479Z,56.55
2023-11-04T17:03:48.454Z,57.49
2023-11-04T17:05:29.631Z,58.93
2023-11-04T17:07:04.134Z,60.43
2023-11-04T17:08:32.290Z,61.83
2023-11-04T17:10:05.044Z,63.37
2023-11-04T17:11:38.970Z,64.59
2023-11-04T17:13:23.061Z,62.64
2023-11-04T17:15:07.369Z,59.81
2023-11-04T17:16:34.985Z,57.02
2023-11-04T17:17:55.416Z,56.69
2023-11-04T17:19:41.164Z,57.88
2023-11-04T17:21:01.430Z,59.39
2023-11-04T17:22:35.632Z,60.81
2023-11-04T17:24:07.549Z,62.57
2023-11-04T17:25:39.663Z,64.29
2023-11-04T17:27:12.254Z,63.64
2023-11-04T17:28:40.139Z,61.61
2023-11-04T17:30:14.718Z,59.18
2023-11-04T17:31:35.101Z,56.86
2023-11-04T17:33:04.997Z,56.94
2023-11-04T17:34:28.160Z,58.30
2023-11-04T17:36:07.857Z,59.73
2023-11-04T17:37:51.832Z,61.50
2023-11-04T17:39:26.004Z,63.21
2023-11-04T17:40:51.085Z,64.76
2023-11-04T17:42:18.855Z,63.14
2023-11-04T17:43:50.900Z,61.05
2023-11-04T17:45:24.151Z,58.64
2023-11-04T17:47:03.911Z,56.84
2023-11-04T17:48:25.344Z,57.59
2023-11-04T17:49:59.831Z,59.06
2023-11-04T17:51:22.270Z,60.55
2023-11-04T17:52:43.901Z,61.99
2023-11-04T17:54:27.201Z,63.99
2023-11-04T17:55:48.230Z,64.52
2023-11-04T17:57:27.208Z,62.55
2023-11-04T17:58:48.802Z,60.08
2023-11-04T18:00:29.932Z,57.60
2023-11-04T18:02:04.960Z,56.87
2023-11-04T18:03:25.119Z,58.03
2023-11-04T18:04:59.984Z,59.41
2023-11-04T18:06:43.976Z,61.20
2023-11-04T18:08:08.199Z,62.79
2023-11-04T18:09:53.562Z,64.41
2023-11-04T18:11:25.291Z,63.46
2023-11-04T18:12:57.689Z,60.77
2023-11-04T18:14:18.410Z,58.68
2023-11-04T18:15:38.889Z,56.87
2023-11-04T18:17:04.470Z,57.13
2023-11-04T18:18:48.861Z,58.61
2023-11-04T18:20:23.078Z,60.22
2023-11-04T18:21:58.838Z,61.81
2023-11-04T18:23:22.300Z,63.78
2023-11-04T18:24:50.205Z,64.37
2023-11-04T18:26:22.172Z,62.59
2023-11-04T18:27:52.942Z,60.56
2023-11-04T18:29:33.139Z,57.67
2023-11-04T18:31:05.279Z,56.83
2023-11-04T18:32:35.148Z,57.91
2023-11-04T18:33:58.343Z,59.36
2023-11-04T18:35:32.499Z,61.00
2023-11-04T18:37:03.309Z,62.36
2023-11-04T18:38:23.752Z,64.31
2023-11-04T18:39:56.349Z,64.11
2023-11-04T18:41:29.002Z,62.31
2023-11-04T18:43:08.588Z,59.75
2023-11-04T18:44:47.878Z,57.20
2023-11-04T18:46:21.935Z,57.05
2023-11-04T18:47:50.291Z,58.51
2023-11-04T18:49:22.306Z,60.21
2023-11-04T18:50:50.490Z,61.86
2023-11-04T18:52:21.041Z,63.66
2023-11-04T18:53:48.745Z,64.42
2023-11-04T18:55:20.639Z,61.56
2023-11-04T18:56:45.288Z,59.15
2023-11-04T18:58:08.305Z,56.90
2023-11-04T18:59:28.845Z,56.84
2023-11-04T19:01:01.229Z,58.11
2023-11-04T19:02:33.449Z,59.69
2023-11-04T19:04:08.691Z,61.11
2023-11-04T19:05:29.638Z,62.70
2023-11-04T19:07:08.997Z,64.54
2023-11-04T19:08:42.909Z,63.72
2023-11-04T19:10:03.701Z,61.25
2023-11-04T19:11:44.735Z,58.88
2023-11-04T19:13:15.463Z,56.72
2023-11-04T19:14:43.600Z,57.23
2023-11-04T19:16:35.458Z,58.69
2023-11-04T19:18:07.803Z,60.45
2023-11-04T19:19:46.919Z,62.21
2023-11-04T19:21:10.685Z,64.18
2023-11-04T19:22:43.460Z,64.27
2023-11-04T19:24:04.258Z,62.48
2023-11-04T19:25:26.627Z,60.31
2023-11-04T19:26:52.461Z,58.00
2023-11-04T19:28:26.973Z,56.91
2023-11-04T19:29:47.884Z,57.74
2023-11-04T19:31:15.645Z,59.08
2023-11-04T19:32:36.514Z,60.74
2023-11-04T19:34:09.032Z,62.26
2023-11-04T19:35:32.459Z,64.38
2023-11-04T19:36:56.808Z,64.39
2023-11-04T19:38:19.413Z,62.52
2023-11-04T19:39:42.634Z,60.19
2023-11-04T19:41:05.868Z,57.99
2023-11-04T19:42:26.420Z,56.82
2023-11-04T19:43:47.069Z,57.52
2023-11-04T19:45:11.923Z,58.90
2023-11-04T19:46:44.230Z,60.56
2023-11-04T19:48:07.542Z,62.03
2023-11-04T19:49:30.547Z,64.04
2023-11-04T19:51:01.389Z,64.83
2023-11-04T19:52:26.626Z,63.04
2023-11-04T19:53:48.242Z,60.85
2023-11-04T19:55:20.124Z,58.76
2023-11-04T19:56:40.793Z,56.87
2023-11-04T19:58:04.537Z,57.13
2023-11-04T19:59:27.485Z,58.46
2023-11-04T20:00:48.012Z,59.98
2023-11-04T20:02:08.481Z,61.39